sensor_id;sensor_type;location;lat;lon;timestamp;P1;durP1;ratioP1;P2;durP2;ratioP2
3131;SDS011;62090;52.330;9.104;2022-07-29T00:01:48;14.50;;;1.30;;
3131;SDS011;62090;52.330;9.104;2022-07-29T00:04:20;9.00;;;1.57;;
3131;SDS011;62090;52.330;9.104;2022-07-29T00:06:51;8.48;;;2.20;;
3131;SDS011;62090;52.330;9.104;2022-07-29T00:09:21;4.37;;;2.03;;
3131;SDS011;62090;52.330;9.104;2022-07-29T00:11:51;4.13;;;1.50;;
3131;SDS011;62090;52.330;9.104;2022-07-29T00:14:22;7.90;;;3.50;;
3131;SDS011;62090;52.330;9.104;2022-07-29T00:16:54;1.47;;;1.00;;
3131;SDS011;62090;52.330;9.104;2022-07-29T00:19:24;8.80;;;1.70;;
3131;SDS011;62090;52.330;9.104;2022-07-29T00:21:55;5.57;;;1.83;;
3131;SDS011;62090;52.330;9.104;2022-07-29T00:24:25;7.07;;;1.77;;
3131;SDS011;62090;52.330;9.104;2022-07-29T00:26:54;17.40;;;2.40;;
3131;SDS011;62090;52.330;9.104;2022-07-29T00:29:24;4.60;;;1.23;;
3131;SDS011;62090;52.330;9.104;2022-07-29T00:32:02;5.67;;;1.30;;
3131;SDS011;62090;52.330;9.104;2022-07-29T00:34:32;2.73;;;1.50;;
3131;SDS011;62090;52.330;9.104;2022-07-29T00:37:14;5.10;;;1.47;;
3131;SDS011;62090;52.330;9.104;2022-07-29T00:39:44;5.50;;;1.30;;
3131;SDS011;62090;52.330;9.104;2022-07-29T00:42:14;2.80;;;1.33;;
3131;SDS011;62090;52.330;9.104;2022-07-29T00:44:45;7.60;;;2.17;;
3131;SDS011;62090;52.330;9.104;2022-07-29T00:47:17;6.77;;;1.20;;
3131;SDS011;62090;52.330;9.104;2022-07-29T00:49:47;4.07;;;1.60;;
3131;SDS011;62090;52.330;9.104;2022-07-29T00:52:17;10.77;;;1.40;;
3131;SDS011;62090;52.330;9.104;2022-07-29T00:54:47;2.50;;;1.03;;
3131;SDS011;62090;52.330;9.104;2022-07-29T00:57:16;10.47;;;1.47;;
3131;SDS011;62090;52.330;9.104;2022-07-29T00:59:46;7.03;;;2.53;;
3131;SDS011;62090;52.330;9.104;2022-07-29T01:02:18;7.97;;;1.20;;
3131;SDS011;62090;52.330;9.104;2022-07-29T01:04:48;7.10;;;1.20;;
3131;SDS011;62090;52.330;9.104;2022-07-29T01:07:18;7.13;;;1.73;;
3131;SDS011;62090;52.330;9.104;2022-07-29T01:09:48;8.33;;;1.67;;
3131;SDS011;62090;52.330;9.104;2022-07-29T01:12:21;4.47;;;1.47;;
3131;SDS011;62090;52.330;9.104;2022-07-29T01:14:53;2.83;;;1.30;;
3131;SDS011;62090;52.330;9.104;2022-07-29T01:17:28;3.03;;;1.23;;
3131;SDS011;62090;52.330;9.104;2022-07-29T01:20:02;4.90;;;2.00;;
3131;SDS011;62090;52.330;9.104;2022-07-29T01:22:47;7.93;;;1.50;;
3131;SDS011;62090;52.330;9.104;2022-07-29T01:25:32;3.47;;;1.30;;
3131;SDS011;62090;52.330;9.104;2022-07-29T01:31:18;4.13;;;2.00;;
3131;SDS011;62090;52.330;9.104;2022-07-29T01:33:57;6.23;;;1.67;;
3131;SDS011;62090;52.330;9.104;2022-07-29T01:36:35;3.63;;;1.60;;
3131;SDS011;62090;52.330;9.104;2022-07-29T01:39:10;7.60;;;1.43;;
3131;SDS011;62090;52.330;9.104;2022-07-29T01:41:43;5.33;;;1.33;;
3131;SDS011;62090;52.330;9.104;2022-07-29T01:44:22;6.03;;;1.33;;
3131;SDS011;62090;52.330;9.104;2022-07-29T01:47:01;5.57;;;1.40;;
3131;SDS011;62090;52.330;9.104;2022-07-29T01:49:35;8.57;;;1.93;;
3131;SDS011;62090;52.330;9.104;2022-07-29T01:52:08;5.13;;;1.30;;
3131;SDS011;62090;52.330;9.104;2022-07-29T01:54:45;5.10;;;1.23;;
3131;SDS011;62090;52.330;9.104;2022-07-29T01:57:21;8.67;;;1.60;;
3131;SDS011;62090;52.330;9.104;2022-07-29T01:59:59;1.20;;;1.10;;
3131;SDS011;62090;52.330;9.104;2022-07-29T02:02:37;3.90;;;1.53;;
3131;SDS011;62090;52.330;9.104;2022-07-29T02:05:09;4.13;;;1.13;;
3131;SDS011;62090;52.330;9.104;2022-07-29T02:07:43;3.70;;;1.40;;
3131;SDS011;62090;52.330;9.104;2022-07-29T02:10:15;5.10;;;1.40;;
3131;SDS011;62090;52.330;9.104;2022-07-29T02:12:51;4.30;;;1.20;;
3131;SDS011;62090;52.330;9.104;2022-07-29T02:15:27;6.40;;;1.50;;
3131;SDS011;62090;52.330;9.104;2022-07-29T02:18:01;6.80;;;1.40;;
3131;SDS011;62090;52.330;9.104;2022-07-29T02:20:34;3.30;;;1.30;;
3131;SDS011;62090;52.330;9.104;2022-07-29T02:23:05;5.97;;;1.53;;
3131;SDS011;62090;52.330;9.104;2022-07-29T02:25:36;5.53;;;1.57;;
3131;SDS011;62090;52.330;9.104;2022-07-29T02:28:08;3.33;;;1.30;;
3131;SDS011;62090;52.330;9.104;2022-07-29T02:30:41;11.70;;;1.50;;
3131;SDS011;62090;52.330;9.104;2022-07-29T02:33:14;5.03;;;1.60;;
3131;SDS011;62090;52.330;9.104;2022-07-29T02:35:46;3.43;;;1.20;;
3131;SDS011;62090;52.330;9.104;2022-07-29T02:38:17;5.00;;;2.03;;
3131;SDS011;62090;52.330;9.104;2022-07-29T02:41:03;3.53;;;1.40;;
3131;SDS011;62090;52.330;9.104;2022-07-29T02:43:38;14.10;;;1.43;;
3131;SDS011;62090;52.330;9.104;2022-07-29T02:46:14;5.80;;;1.40;;
3131;SDS011;62090;52.330;9.104;2022-07-29T02:48:56;4.00;;;1.50;;
3131;SDS011;62090;52.330;9.104;2022-07-29T02:51:31;4.00;;;1.60;;
3131;SDS011;62090;52.330;9.104;2022-07-29T02:54:10;4.90;;;1.70;;
3131;SDS011;62090;52.330;9.104;2022-07-29T02:56:44;26.60;;;1.80;;
3131;SDS011;62090;52.330;9.104;2022-07-29T02:59:15;3.77;;;1.57;;
3131;SDS011;62090;52.330;9.104;2022-07-29T03:01:53;8.20;;;1.83;;
3131;SDS011;62090;52.330;9.104;2022-07-29T03:04:24;6.07;;;1.60;;
3131;SDS011;62090;52.330;9.104;2022-07-29T03:06:58;13.27;;;1.33;;
3131;SDS011;62090;52.330;9.104;2022-07-29T03:09:29;5.10;;;1.50;;
3131;SDS011;62090;52.330;9.104;2022-07-29T03:11:59;8.50;;;1.70;;
3131;SDS011;62090;52.330;9.104;2022-07-29T03:14:30;5.47;;;1.50;;
3131;SDS011;62090;52.330;9.104;2022-07-29T03:17:03;7.20;;;1.57;;
3131;SDS011;62090;52.330;9.104;2022-07-29T03:19:34;5.27;;;1.50;;
3131;SDS011;62090;52.330;9.104;2022-07-29T03:22:04;6.63;;;1.50;;
3131;SDS011;62090;52.330;9.104;2022-07-29T03:24:35;4.40;;;1.47;;
3131;SDS011;62090;52.330;9.104;2022-07-29T03:27:05;2.80;;;1.57;;
3131;SDS011;62090;52.330;9.104;2022-07-29T03:29:35;4.17;;;1.50;;
3131;SDS011;62090;52.330;9.104;2022-07-29T03:32:11;3.63;;;1.47;;
3131;SDS011;62090;52.330;9.104;2022-07-29T03:34:49;6.87;;;1.90;;
3131;SDS011;62090;52.330;9.104;2022-07-29T03:37:19;4.43;;;1.50;;
3131;SDS011;62090;52.330;9.104;2022-07-29T03:39:48;3.07;;;1.40;;
3131;SDS011;62090;52.330;9.104;2022-07-29T03:42:20;7.80;;;1.90;;
3131;SDS011;62090;52.330;9.104;2022-07-29T03:44:59;4.63;;;2.10;;
3131;SDS011;62090;52.330;9.104;2022-07-29T03:47:37;6.00;;;1.50;;
3131;SDS011;62090;52.330;9.104;2022-07-29T03:50:23;7.33;;;1.80;;
3131;SDS011;62090;52.330;9.104;2022-07-29T03:52:53;10.73;;;1.70;;
3131;SDS011;62090;52.330;9.104;2022-07-29T03:55:23;2.37;;;1.40;;
3131;SDS011;62090;52.330;9.104;2022-07-29T03:57:54;3.83;;;1.27;;
3131;SDS011;62090;52.330;9.104;2022-07-29T04:00:26;6.40;;;1.63;;
3131;SDS011;62090;52.330;9.104;2022-07-29T04:02:59;3.03;;;1.53;;
3131;SDS011;62090;52.330;9.104;2022-07-29T04:05:29;7.93;;;2.03;;
3131;SDS011;62090;52.330;9.104;2022-07-29T04:07:59;5.07;;;1.87;;
3131;SDS011;62090;52.330;9.104;2022-07-29T04:10:29;6.00;;;1.20;;
3131;SDS011;62090;52.330;9.104;2022-07-29T04:13:01;3.97;;;1.40;;
3131;SDS011;62090;52.330;9.104;2022-07-29T04:15:30;5.67;;;1.83;;
3131;SDS011;62090;52.330;9.104;2022-07-29T04:18:03;5.33;;;1.57;;
3131;SDS011;62090;52.330;9.104;2022-07-29T04:20:33;6.90;;;1.70;;
3131;SDS011;62090;52.330;9.104;2022-07-29T04:23:02;2.97;;;1.60;;
3131;SDS011;62090;52.330;9.104;2022-07-29T04:25:32;3.23;;;1.67;;
3131;SDS011;62090;52.330;9.104;2022-07-29T04:28:02;4.37;;;1.63;;
3131;SDS011;62090;52.330;9.104;2022-07-29T04:30:32;4.60;;;1.53;;
3131;SDS011;62090;52.330;9.104;2022-07-29T04:33:06;3.27;;;1.60;;
3131;SDS011;62090;52.330;9.104;2022-07-29T04:35:36;6.60;;;1.83;;
3131;SDS011;62090;52.330;9.104;2022-07-29T04:38:17;3.73;;;1.63;;
3131;SDS011;62090;52.330;9.104;2022-07-29T04:40:48;4.77;;;1.87;;
3131;SDS011;62090;52.330;9.104;2022-07-29T04:43:20;8.03;;;1.53;;
3131;SDS011;62090;52.330;9.104;2022-07-29T04:45:50;7.37;;;1.63;;
3131;SDS011;62090;52.330;9.104;2022-07-29T04:48:22;4.77;;;1.70;;
3131;SDS011;62090;52.330;9.104;2022-07-29T04:50:54;4.03;;;1.57;;
3131;SDS011;62090;52.330;9.104;2022-07-29T04:53:24;10.27;;;2.10;;
3131;SDS011;62090;52.330;9.104;2022-07-29T04:55:54;8.50;;;1.93;;
3131;SDS011;62090;52.330;9.104;2022-07-29T04:58:24;9.13;;;2.37;;
3131;SDS011;62090;52.330;9.104;2022-07-29T05:00:54;7.10;;;1.70;;
3131;SDS011;62090;52.330;9.104;2022-07-29T05:03:26;11.53;;;1.80;;
3131;SDS011;62090;52.330;9.104;2022-07-29T05:05:56;3.80;;;1.60;;
3131;SDS011;62090;52.330;9.104;2022-07-29T05:08:26;10.43;;;2.03;;
3131;SDS011;62090;52.330;9.104;2022-07-29T05:10:57;5.70;;;1.87;;
3131;SDS011;62090;52.330;9.104;2022-07-29T05:13:39;13.70;;;2.63;;
3131;SDS011;62090;52.330;9.104;2022-07-29T05:16:12;18.23;;;2.03;;
3131;SDS011;62090;52.330;9.104;2022-07-29T05:18:45;9.50;;;2.23;;
3131;SDS011;62090;52.330;9.104;2022-07-29T05:21:15;7.43;;;1.50;;
3131;SDS011;62090;52.330;9.104;2022-07-29T05:23:45;3.40;;;1.53;;
3131;SDS011;62090;52.330;9.104;2022-07-29T05:26:15;19.97;;;2.20;;
3131;SDS011;62090;52.330;9.104;2022-07-29T05:28:45;4.97;;;1.40;;
3131;SDS011;62090;52.330;9.104;2022-07-29T05:31:15;4.00;;;1.77;;
3131;SDS011;62090;52.330;9.104;2022-07-29T05:33:48;7.23;;;1.53;;
3131;SDS011;62090;52.330;9.104;2022-07-29T05:36:17;6.17;;;1.30;;
3131;SDS011;62090;52.330;9.104;2022-07-29T05:38:48;14.00;;;1.83;;
3131;SDS011;62090;52.330;9.104;2022-07-29T05:41:18;4.20;;;1.57;;
3131;SDS011;62090;52.330;9.104;2022-07-29T05:43:48;4.60;;;2.00;;
3131;SDS011;62090;52.330;9.104;2022-07-29T05:46:18;7.17;;;1.50;;
3131;SDS011;62090;52.330;9.104;2022-07-29T05:48:51;2.97;;;1.60;;
3131;SDS011;62090;52.330;9.104;2022-07-29T05:51:22;7.87;;;1.40;;
3131;SDS011;62090;52.330;9.104;2022-07-29T05:53:52;6.73;;;1.80;;
3131;SDS011;62090;52.330;9.104;2022-07-29T05:56:23;10.63;;;1.60;;
3131;SDS011;62090;52.330;9.104;2022-07-29T05:58:54;3.43;;;1.53;;
3131;SDS011;62090;52.330;9.104;2022-07-29T06:01:26;3.93;;;1.67;;
3131;SDS011;62090;52.330;9.104;2022-07-29T06:03:58;4.63;;;1.40;;
3131;SDS011;62090;52.330;9.104;2022-07-29T06:06:28;2.70;;;1.27;;
3131;SDS011;62090;52.330;9.104;2022-07-29T06:08:58;2.83;;;1.60;;
3131;SDS011;62090;52.330;9.104;2022-07-29T06:11:38;10.10;;;1.80;;
3131;SDS011;62090;52.330;9.104;2022-07-29T06:14:09;9.83;;;1.90;;
3131;SDS011;62090;52.330;9.104;2022-07-29T06:16:39;6.27;;;2.40;;
3131;SDS011;62090;52.330;9.104;2022-07-29T06:19:11;5.83;;;1.60;;
3131;SDS011;62090;52.330;9.104;2022-07-29T06:21:41;3.97;;;1.60;;
3131;SDS011;62090;52.330;9.104;2022-07-29T06:24:12;4.53;;;1.47;;
3131;SDS011;62090;52.330;9.104;2022-07-29T06:26:45;10.53;;;2.00;;
3131;SDS011;62090;52.330;9.104;2022-07-29T06:29:16;2.50;;;1.30;;
3131;SDS011;62090;52.330;9.104;2022-07-29T06:31:46;6.47;;;1.70;;
3131;SDS011;62090;52.330;9.104;2022-07-29T06:34:18;7.27;;;1.90;;
3131;SDS011;62090;52.330;9.104;2022-07-29T06:36:48;4.50;;;1.43;;
3131;SDS011;62090;52.330;9.104;2022-07-29T06:39:19;6.57;;;1.63;;
3131;SDS011;62090;52.330;9.104;2022-07-29T06:41:50;2.80;;;1.53;;
3131;SDS011;62090;52.330;9.104;2022-07-29T06:44:24;6.33;;;2.20;;
3131;SDS011;62090;52.330;9.104;2022-07-29T06:46:55;7.33;;;2.10;;
3131;SDS011;62090;52.330;9.104;2022-07-29T06:49:28;10.40;;;2.00;;
3131;SDS011;62090;52.330;9.104;2022-07-29T06:51:57;5.47;;;1.73;;
3131;SDS011;62090;52.330;9.104;2022-07-29T06:54:28;4.80;;;1.60;;
3131;SDS011;62090;52.330;9.104;2022-07-29T06:56:59;5.07;;;1.83;;
3131;SDS011;62090;52.330;9.104;2022-07-29T06:59:30;7.57;;;1.70;;
3131;SDS011;62090;52.330;9.104;2022-07-29T07:02:03;5.43;;;1.70;;
3131;SDS011;62090;52.330;9.104;2022-07-29T07:04:36;8.13;;;2.20;;
3131;SDS011;62090;52.330;9.104;2022-07-29T07:07:06;11.20;;;1.77;;
3131;SDS011;62090;52.330;9.104;2022-07-29T07:09:37;7.77;;;2.13;;
3131;SDS011;62090;52.330;9.104;2022-07-29T07:12:07;7.93;;;1.97;;
3131;SDS011;62090;52.330;9.104;2022-07-29T07:14:39;5.60;;;1.90;;
3131;SDS011;62090;52.330;9.104;2022-07-29T07:17:09;20.27;;;2.20;;
3131;SDS011;62090;52.330;9.104;2022-07-29T07:19:44;11.63;;;2.50;;
3131;SDS011;62090;52.330;9.104;2022-07-29T07:22:14;11.27;;;2.77;;
3131;SDS011;62090;52.330;9.104;2022-07-29T07:24:44;13.60;;;2.23;;
3131;SDS011;62090;52.330;9.104;2022-07-29T07:27:13;6.07;;;1.80;;
3131;SDS011;62090;52.330;9.104;2022-07-29T07:29:44;25.40;;;2.37;;
3131;SDS011;62090;52.330;9.104;2022-07-29T07:32:15;6.20;;;1.83;;
3131;SDS011;62090;52.330;9.104;2022-07-29T07:34:48;3.67;;;2.30;;
3131;SDS011;62090;52.330;9.104;2022-07-29T07:37:18;10.50;;;2.50;;
3131;SDS011;62090;52.330;9.104;2022-07-29T07:39:48;10.40;;;2.67;;
3131;SDS011;62090;52.330;9.104;2022-07-29T07:42:19;4.00;;;1.87;;
3131;SDS011;62090;52.330;9.104;2022-07-29T07:44:49;13.30;;;2.80;;
3131;SDS011;62090;52.330;9.104;2022-07-29T07:47:39;4.20;;;2.23;;
3131;SDS011;62090;52.330;9.104;2022-07-29T07:50:12;13.30;;;2.73;;
3131;SDS011;62090;52.330;9.104;2022-07-29T07:52:46;8.77;;;2.57;;
3131;SDS011;62090;52.330;9.104;2022-07-29T07:55:19;15.50;;;1.93;;
3131;SDS011;62090;52.330;9.104;2022-07-29T07:57:49;6.80;;;1.80;;
3131;SDS011;62090;52.330;9.104;2022-07-29T08:00:19;8.73;;;2.30;;
3131;SDS011;62090;52.330;9.104;2022-07-29T08:02:50;8.83;;;2.57;;
3131;SDS011;62090;52.330;9.104;2022-07-29T08:05:23;6.63;;;1.80;;
3131;SDS011;62090;52.330;9.104;2022-07-29T08:07:53;10.07;;;3.07;;
3131;SDS011;62090;52.330;9.104;2022-07-29T08:10:24;10.13;;;2.20;;
3131;SDS011;62090;52.330;9.104;2022-07-29T08:13:08;10.10;;;2.53;;
3131;SDS011;62090;52.330;9.104;2022-07-29T08:15:39;17.40;;;2.70;;
3131;SDS011;62090;52.330;9.104;2022-07-29T08:18:12;10.13;;;2.50;;
3131;SDS011;62090;52.330;9.104;2022-07-29T08:20:45;6.10;;;1.73;;
3131;SDS011;62090;52.330;9.104;2022-07-29T08:23:15;3.73;;;1.67;;
3131;SDS011;62090;52.330;9.104;2022-07-29T08:25:45;8.47;;;2.83;;
3131;SDS011;62090;52.330;9.104;2022-07-29T08:28:16;9.30;;;1.90;;
3131;SDS011;62090;52.330;9.104;2022-07-29T08:30:45;6.13;;;1.53;;
3131;SDS011;62090;52.330;9.104;2022-07-29T08:33:16;20.97;;;4.50;;
3131;SDS011;62090;52.330;9.104;2022-07-29T08:35:50;7.23;;;2.20;;
3131;SDS011;62090;52.330;9.104;2022-07-29T08:38:19;12.50;;;2.20;;
3131;SDS011;62090;52.330;9.104;2022-07-29T08:40:50;16.63;;;2.70;;
3131;SDS011;62090;52.330;9.104;2022-07-29T08:43:20;10.63;;;2.53;;
3131;SDS011;62090;52.330;9.104;2022-07-29T08:45:51;13.23;;;2.30;;
3131;SDS011;62090;52.330;9.104;2022-07-29T08:48:22;17.03;;;2.23;;
3131;SDS011;62090;52.330;9.104;2022-07-29T08:50:56;5.47;;;1.67;;
3131;SDS011;62090;52.330;9.104;2022-07-29T08:53:28;6.50;;;2.00;;
3131;SDS011;62090;52.330;9.104;2022-07-29T08:55:58;4.87;;;1.87;;
3131;SDS011;62090;52.330;9.104;2022-07-29T08:58:31;4.10;;;1.63;;
3131;SDS011;62090;52.330;9.104;2022-07-29T09:01:04;4.83;;;1.90;;
3131;SDS011;62090;52.330;9.104;2022-07-29T09:03:39;3.70;;;1.77;;
3131;SDS011;62090;52.330;9.104;2022-07-29T09:06:15;6.20;;;2.50;;
3131;SDS011;62090;52.330;9.104;2022-07-29T09:08:48;3.33;;;1.67;;
3131;SDS011;62090;52.330;9.104;2022-07-29T09:11:19;5.40;;;2.10;;
3131;SDS011;62090;52.330;9.104;2022-07-29T09:13:49;11.87;;;2.30;;
3131;SDS011;62090;52.330;9.104;2022-07-29T09:16:18;5.37;;;1.87;;
3131;SDS011;62090;52.330;9.104;2022-07-29T09:19:12;7.43;;;2.03;;
3131;SDS011;62090;52.330;9.104;2022-07-29T09:21:52;8.57;;;2.33;;
3131;SDS011;62090;52.330;9.104;2022-07-29T09:24:37;7.27;;;2.40;;
3131;SDS011;62090;52.330;9.104;2022-07-29T09:27:11;6.60;;;1.70;;
3131;SDS011;62090;52.330;9.104;2022-07-29T09:29:55;4.73;;;1.83;;
3131;SDS011;62090;52.330;9.104;2022-07-29T09:32:26;12.60;;;2.23;;
3131;SDS011;62090;52.330;9.104;2022-07-29T09:37:50;4.13;;;1.63;;
3131;SDS011;62090;52.330;9.104;2022-07-29T09:40:20;5.00;;;1.80;;
3131;SDS011;62090;52.330;9.104;2022-07-29T09:42:52;7.77;;;1.80;;
3131;SDS011;62090;52.330;9.104;2022-07-29T09:45:27;10.80;;;2.90;;
3131;SDS011;62090;52.330;9.104;2022-07-29T09:47:58;22.13;;;2.27;;
3131;SDS011;62090;52.330;9.104;2022-07-29T09:50:36;5.70;;;2.30;;
3131;SDS011;62090;52.330;9.104;2022-07-29T09:53:10;9.73;;;1.60;;
3131;SDS011;62090;52.330;9.104;2022-07-29T09:55:45;9.67;;;2.50;;
3131;SDS011;62090;52.330;9.104;2022-07-29T09:58:17;5.30;;;1.90;;
3131;SDS011;62090;52.330;9.104;2022-07-29T10:00:50;9.10;;;2.37;;
3131;SDS011;62090;52.330;9.104;2022-07-29T10:03:21;8.00;;;2.10;;
3131;SDS011;62090;52.330;9.104;2022-07-29T10:06:06;9.00;;;3.23;;
3131;SDS011;62090;52.330;9.104;2022-07-29T10:08:39;4.67;;;1.80;;
3131;SDS011;62090;52.330;9.104;2022-07-29T10:11:11;5.87;;;2.00;;
3131;SDS011;62090;52.330;9.104;2022-07-29T10:13:43;17.43;;;2.13;;
3131;SDS011;62090;52.330;9.104;2022-07-29T10:16:16;19.60;;;2.97;;
3131;SDS011;62090;52.330;9.104;2022-07-29T10:18:48;7.27;;;1.77;;
3131;SDS011;62090;52.330;9.104;2022-07-29T10:21:18;12.70;;;2.00;;
3131;SDS011;62090;52.330;9.104;2022-07-29T10:24:06;9.77;;;2.20;;
3131;SDS011;62090;52.330;9.104;2022-07-29T10:26:41;20.13;;;2.93;;
3131;SDS011;62090;52.330;9.104;2022-07-29T10:29:14;6.90;;;2.30;;
3131;SDS011;62090;52.330;9.104;2022-07-29T10:31:49;8.17;;;2.40;;
3131;SDS011;62090;52.330;9.104;2022-07-29T10:34:30;9.83;;;2.10;;
3131;SDS011;62090;52.330;9.104;2022-07-29T10:37:16;11.03;;;2.23;;
3131;SDS011;62090;52.330;9.104;2022-07-29T10:40:00;7.40;;;2.13;;
3131;SDS011;62090;52.330;9.104;2022-07-29T10:42:54;7.60;;;2.33;;
3131;SDS011;62090;52.330;9.104;2022-07-29T10:45:31;7.87;;;2.17;;
3131;SDS011;62090;52.330;9.104;2022-07-29T10:48:04;6.97;;;2.07;;
3131;SDS011;62090;52.330;9.104;2022-07-29T10:50:52;14.07;;;2.70;;
3131;SDS011;62090;52.330;9.104;2022-07-29T10:53:24;11.23;;;2.60;;
3131;SDS011;62090;52.330;9.104;2022-07-29T10:56:28;13.73;;;2.40;;
3131;SDS011;62090;52.330;9.104;2022-07-29T11:02:01;9.30;;;2.60;;
3131;SDS011;62090;52.330;9.104;2022-07-29T11:05:01;11.70;;;2.87;;
3131;SDS011;62090;52.330;9.104;2022-07-29T11:07:33;10.87;;;2.43;;
3131;SDS011;62090;52.330;9.104;2022-07-29T11:10:25;14.57;;;2.67;;
3131;SDS011;62090;52.330;9.104;2022-07-29T11:13:00;21.37;;;2.87;;
3131;SDS011;62090;52.330;9.104;2022-07-29T11:15:51;12.47;;;2.63;;
3131;SDS011;62090;52.330;9.104;2022-07-29T11:18:22;11.63;;;2.80;;
3131;SDS011;62090;52.330;9.104;2022-07-29T11:20:52;13.13;;;3.47;;
3131;SDS011;62090;52.330;9.104;2022-07-29T11:23:27;9.20;;;2.40;;
3131;SDS011;62090;52.330;9.104;2022-07-29T11:26:13;11.20;;;2.70;;
3131;SDS011;62090;52.330;9.104;2022-07-29T11:28:53;9.20;;;2.53;;
3131;SDS011;62090;52.330;9.104;2022-07-29T11:31:34;17.43;;;2.60;;
3131;SDS011;62090;52.330;9.104;2022-07-29T11:34:18;14.30;;;2.80;;
3131;SDS011;62090;52.330;9.104;2022-07-29T11:40:13;15.77;;;2.40;;
3131;SDS011;62090;52.330;9.104;2022-07-29T11:42:48;13.40;;;3.40;;
3131;SDS011;62090;52.330;9.104;2022-07-29T11:45:25;7.60;;;2.40;;
3131;SDS011;62090;52.330;9.104;2022-07-29T11:48:15;15.60;;;2.37;;
3131;SDS011;62090;52.330;9.104;2022-07-29T11:51:08;6.43;;;2.37;;
3131;SDS011;62090;52.330;9.104;2022-07-29T11:53:46;25.80;;;3.20;;
3131;SDS011;62090;52.330;9.104;2022-07-29T11:56:19;8.97;;;2.60;;
3131;SDS011;62090;52.330;9.104;2022-07-29T11:59:00;14.50;;;3.37;;
3131;SDS011;62090;52.330;9.104;2022-07-29T12:01:38;8.43;;;2.60;;
3131;SDS011;62090;52.330;9.104;2022-07-29T12:04:49;25.73;;;3.07;;
3131;SDS011;62090;52.330;9.104;2022-07-29T12:07:26;29.77;;;3.77;;
3131;SDS011;62090;52.330;9.104;2022-07-29T12:10:02;23.03;;;2.63;;
3131;SDS011;62090;52.330;9.104;2022-07-29T12:12:37;7.33;;;3.00;;
3131;SDS011;62090;52.330;9.104;2022-07-29T12:15:14;26.87;;;3.20;;
3131;SDS011;62090;52.330;9.104;2022-07-29T12:17:51;18.23;;;3.00;;
3131;SDS011;62090;52.330;9.104;2022-07-29T12:20:23;16.10;;;3.40;;
3131;SDS011;62090;52.330;9.104;2022-07-29T12:22:56;20.07;;;3.00;;
3131;SDS011;62090;52.330;9.104;2022-07-29T12:25:32;6.67;;;3.03;;
3131;SDS011;62090;52.330;9.104;2022-07-29T12:28:05;11.13;;;2.80;;
3131;SDS011;62090;52.330;9.104;2022-07-29T12:30:40;10.10;;;3.00;;
3131;SDS011;62090;52.330;9.104;2022-07-29T12:33:18;14.87;;;3.10;;
3131;SDS011;62090;52.330;9.104;2022-07-29T12:35:51;16.90;;;2.93;;
3131;SDS011;62090;52.330;9.104;2022-07-29T12:38:36;16.53;;;3.10;;
3131;SDS011;62090;52.330;9.104;2022-07-29T12:41:10;11.20;;;2.90;;
3131;SDS011;62090;52.330;9.104;2022-07-29T12:43:52;24.50;;;4.07;;
3131;SDS011;62090;52.330;9.104;2022-07-29T12:46:28;13.77;;;3.00;;
3131;SDS011;62090;52.330;9.104;2022-07-29T12:49:01;16.70;;;2.67;;
3131;SDS011;62090;52.330;9.104;2022-07-29T12:51:32;5.13;;;2.40;;
3131;SDS011;62090;52.330;9.104;2022-07-29T12:54:05;17.13;;;3.00;;
3131;SDS011;62090;52.330;9.104;2022-07-29T12:56:37;9.00;;;2.30;;
3131;SDS011;62090;52.330;9.104;2022-07-29T12:59:11;16.43;;;3.40;;
3131;SDS011;62090;52.330;9.104;2022-07-29T13:01:47;8.10;;;2.67;;
3131;SDS011;62090;52.330;9.104;2022-07-29T13:04:28;19.40;;;2.83;;
3131;SDS011;62090;52.330;9.104;2022-07-29T13:07:04;10.60;;;2.70;;
3131;SDS011;62090;52.330;9.104;2022-07-29T13:09:36;9.67;;;2.90;;
3131;SDS011;62090;52.330;9.104;2022-07-29T13:12:09;21.73;;;3.10;;
3131;SDS011;62090;52.330;9.104;2022-07-29T13:14:45;13.77;;;3.40;;
3131;SDS011;62090;52.330;9.104;2022-07-29T13:17:17;6.43;;;2.57;;
3131;SDS011;62090;52.330;9.104;2022-07-29T13:20:04;18.83;;;2.60;;
3131;SDS011;62090;52.330;9.104;2022-07-29T13:22:39;18.30;;;3.30;;
3131;SDS011;62090;52.330;9.104;2022-07-29T13:25:11;12.43;;;2.70;;
3131;SDS011;62090;52.330;9.104;2022-07-29T13:27:42;13.03;;;2.90;;
3131;SDS011;62090;52.330;9.104;2022-07-29T13:30:14;5.70;;;2.53;;
3131;SDS011;62090;52.330;9.104;2022-07-29T13:32:45;5.43;;;2.70;;
3131;SDS011;62090;52.330;9.104;2022-07-29T13:35:18;8.70;;;2.60;;
3131;SDS011;62090;52.330;9.104;2022-07-29T13:37:48;11.07;;;3.13;;
3131;SDS011;62090;52.330;9.104;2022-07-29T13:40:20;13.23;;;2.93;;
3131;SDS011;62090;52.330;9.104;2022-07-29T13:42:52;12.70;;;2.70;;
3131;SDS011;62090;52.330;9.104;2022-07-29T13:45:22;19.90;;;3.07;;
3131;SDS011;62090;52.330;9.104;2022-07-29T13:47:54;17.37;;;5.90;;
3131;SDS011;62090;52.330;9.104;2022-07-29T13:50:27;13.80;;;3.00;;
3131;SDS011;62090;52.330;9.104;2022-07-29T13:52:57;20.47;;;3.20;;
3131;SDS011;62090;52.330;9.104;2022-07-29T13:55:30;12.33;;;2.30;;
3131;SDS011;62090;52.330;9.104;2022-07-29T13:58:00;8.53;;;3.00;;
3131;SDS011;62090;52.330;9.104;2022-07-29T14:00:30;9.50;;;2.70;;
3131;SDS011;62090;52.330;9.104;2022-07-29T14:03:00;11.77;;;2.50;;
3131;SDS011;62090;52.330;9.104;2022-07-29T14:05:33;15.43;;;4.30;;
3131;SDS011;62090;52.330;9.104;2022-07-29T14:08:03;7.07;;;2.80;;
3131;SDS011;62090;52.330;9.104;2022-07-29T14:10:34;10.20;;;2.70;;
3131;SDS011;62090;52.330;9.104;2022-07-29T14:13:04;6.80;;;3.00;;
3131;SDS011;62090;52.330;9.104;2022-07-29T14:15:51;9.20;;;2.50;;
3131;SDS011;62090;52.330;9.104;2022-07-29T14:18:23;6.63;;;2.80;;
3131;SDS011;62090;52.330;9.104;2022-07-29T14:20:56;9.03;;;2.50;;
3131;SDS011;62090;52.330;9.104;2022-07-29T14:23:27;5.90;;;2.50;;
3131;SDS011;62090;52.330;9.104;2022-07-29T14:25:58;19.53;;;2.83;;
3131;SDS011;62090;52.330;9.104;2022-07-29T14:28:28;14.43;;;2.73;;
3131;SDS011;62090;52.330;9.104;2022-07-29T14:30:58;15.40;;;2.80;;
3131;SDS011;62090;52.330;9.104;2022-07-29T14:33:28;17.50;;;2.87;;
3131;SDS011;62090;52.330;9.104;2022-07-29T14:36:00;11.43;;;2.90;;
3131;SDS011;62090;52.330;9.104;2022-07-29T14:38:30;11.53;;;3.50;;
3131;SDS011;62090;52.330;9.104;2022-07-29T14:41:01;12.67;;;2.73;;
3131;SDS011;62090;52.330;9.104;2022-07-29T14:43:31;7.93;;;2.77;;
3131;SDS011;62090;52.330;9.104;2022-07-29T14:46:01;11.60;;;2.67;;
3131;SDS011;62090;52.330;9.104;2022-07-29T14:48:34;8.67;;;2.80;;
3131;SDS011;62090;52.330;9.104;2022-07-29T14:51:06;11.93;;;3.07;;
3131;SDS011;62090;52.330;9.104;2022-07-29T14:53:36;7.63;;;2.60;;
3131;SDS011;62090;52.330;9.104;2022-07-29T14:56:06;14.30;;;2.87;;
3131;SDS011;62090;52.330;9.104;2022-07-29T14:58:56;6.73;;;2.63;;
3131;SDS011;62090;52.330;9.104;2022-07-29T15:01:28;8.60;;;2.77;;
3131;SDS011;62090;52.330;9.104;2022-07-29T15:03:58;11.43;;;2.77;;
3131;SDS011;62090;52.330;9.104;2022-07-29T15:06:30;13.67;;;2.47;;
3131;SDS011;62090;52.330;9.104;2022-07-29T15:09:01;8.43;;;3.10;;
3131;SDS011;62090;52.330;9.104;2022-07-29T15:11:33;9.10;;;2.40;;
3131;SDS011;62090;52.330;9.104;2022-07-29T15:14:04;8.30;;;2.57;;
3131;SDS011;62090;52.330;9.104;2022-07-29T15:16:37;6.03;;;2.83;;
3131;SDS011;62090;52.330;9.104;2022-07-29T15:19:10;14.70;;;2.90;;
3131;SDS011;62090;52.330;9.104;2022-07-29T15:21:44;10.23;;;2.20;;
3131;SDS011;62090;52.330;9.104;2022-07-29T15:24:16;7.37;;;2.17;;
3131;SDS011;62090;52.330;9.104;2022-07-29T15:26:47;5.30;;;2.80;;
3131;SDS011;62090;52.330;9.104;2022-07-29T15:29:17;6.40;;;3.13;;
3131;SDS011;62090;52.330;9.104;2022-07-29T15:31:47;11.70;;;3.00;;
3131;SDS011;62090;52.330;9.104;2022-07-29T15:34:21;10.03;;;3.10;;
3131;SDS011;62090;52.330;9.104;2022-07-29T15:36:54;9.03;;;2.90;;
3131;SDS011;62090;52.330;9.104;2022-07-29T15:39:24;17.27;;;4.57;;
3131;SDS011;62090;52.330;9.104;2022-07-29T15:41:55;12.03;;;3.33;;
3131;SDS011;62090;52.330;9.104;2022-07-29T15:44:27;9.43;;;2.67;;
3131;SDS011;62090;52.330;9.104;2022-07-29T15:46:57;11.80;;;2.80;;
3131;SDS011;62090;52.330;9.104;2022-07-29T15:49:33;7.63;;;2.73;;